HOURLY OBS INDEX

077

Mallee - south

HOPETOUN AIRPORT

Site: 077010
Alt: 77.3m
87km NNE of DIMBOOLA


  Time     Wind        Temp  DP   Baro     Rain since   Rain past  Vis(m), Cloud(base in m), Weather
  local        km/h                         9am  last   hr   10m    
Thu 09:00    W 13/ 17   7.2  7.1  1016.6    0.0   0.0   0.0   0.0   ----- 
Thu 09:30  WNW 13/ 19   8.9  7.2  1016.8    0.0   0.0   0.0   0.0   ----- 
Thu 10:00    W 15/ 19   9.9  7.0  1016.8    0.0   0.0   0.0   0.0   ----- 
Thu 10:30    W 17/ 20  11.7  7.4  1016.7    0.0   0.0   0.0   0.0   ----- 
Thu 11:00    W 15/ 20  12.6  6.2  1016.7    0.0   0.0   0.0   0.0   ----- 
Thu 11:30    W 15/ 22  13.8  5.7  1016.6    0.0   0.0   0.0   0.0   ----- 
Thu 12:00    W 13/ 22  13.0  3.9  1016.4    0.0   0.0   0.0   0.0   ----- 
Thu 12:30  WSW 17/ 22  13.2  3.8  1015.9    0.0   0.0   0.0   0.0   ----- 
Thu 13:00    W 11/ 15  13.4  4.6  1015.5    0.0   0.0   0.0   0.0   ----- 
Thu 13:30    W 19/ 24  13.8  3.3  1015.2    0.0   0.0   0.0   0.0   ----- 
Thu 14:00    W 17/ 22  13.4  5.6  1015.0    0.0   0.0   0.0   0.0   ----- 

SWAN HILL AERODROME

Site: 077094
Alt: 71.0m
4km SSW of SWAN HILL


  Time     Wind        Temp  DP   Baro     Rain since   Rain past  Vis(m), Cloud(base in m), Weather
  local        km/h                         9am  last   hr   10m    
Thu 09:00    W 19/ 22   8.2  6.0  1016.2    0.0   0.0   0.0   0.0   10000 
Thu 09:30    W 19/ 26   9.5  4.9  1016.4    0.0   0.0   0.0   0.0   10000 
Thu 10:00    W 20/ 26  11.0  4.9  1016.6    0.0   0.0   0.0   0.0   10000 
Thu 10:30    W 19/ 28  12.2  4.7  1016.5    0.0   0.0   0.0   0.0   10000 
Thu 11:00    W 20/ 32  13.1  4.5  1016.3    0.0   0.0   0.0   0.0   10000 
Thu 11:30  WSW 20/ 32  13.8  3.3  1016.4    0.0   0.0   0.0   0.0   10000|SC 960 SC1140 
Thu 12:00    W 19/ 26  13.7  3.2  1016.0    0.0   0.0   0.0   0.0   10000|SC1500 
Thu 12:30   SW 19/ 24  13.3  2.5  1015.7    0.0   0.0   0.0   0.0   10000|SC1230 BR1590 
Thu 13:00    W 22/ 28  13.3  2.5  1015.1    0.0   0.0   0.0   0.0   10000|BR1740 
Thu 13:30  WSW 22/ 28  13.6  1.3  1014.8    0.0   0.0   0.0   0.0   10000|SC1680 
Thu 14:00  WSW 22/ 33  14.4  1.0  1014.5    0.0   0.0   0.0   0.0   10000|SC1560 BR1920